Time;durP1;ratioP1;P1;durP2;ratioP2;P2;SDS_P1;SDS_P2;PMS_P1;PMS_P2;Temp;Humidity;BMP_temperature;BMP_pressure;BME280_temperature;BME280_humidity;BME280_pressure;Samples;Min_cycle;Max_cycle;Signal;HPM_P1;HPM_P2
2023/05/19 00:01:32;;;;;;;2.20;2.10;;;;;;;;;;4995164;28;20026;-31
2023/05/19 00:04:03;;;;;;;1.80;1.70;;;;;;;;;;4994976;28;20465;-30
2023/05/19 00:06:30;;;;;;;2.15;2.05;;;;;;;;;;4999320;28;20035;-31
2023/05/19 00:08:58;;;;;;;1.70;1.55;;;;;;;;;;5002234;28;20380;-32
2023/05/19 00:11:25;;;;;;;1.67;1.58;;;;;;;;;;5001659;28;20049;-27
2023/05/19 00:13:53;;;;;;;1.60;1.50;;;;;;;;;;5001557;28;20457;-30
2023/05/19 00:16:19;;;;;;;1.70;1.60;;;;;;;;;;5001550;28;20043;-29
2023/05/19 00:18:47;;;;;;;1.90;1.80;;;;;;;;;;5001881;28;20022;-32
2023/05/19 00:21:13;;;;;;;2.30;2.10;;;;;;;;;;5001788;28;20101;-30
2023/05/19 00:23:39;;;;;;;1.55;1.45;;;;;;;;;;5001526;28;20026;-30
2023/05/19 00:26:05;;;;;;;1.80;1.70;;;;;;;;;;4984416;28;20456;-31
2023/05/19 00:28:31;;;;;;;1.73;1.63;;;;;;;;;;5001760;28;20088;-28
2023/05/19 00:30:57;;;;;;;1.80;1.70;;;;;;;;;;5001767;28;20084;-31
2023/05/19 00:33:24;;;;;;;1.70;1.60;;;;;;;;;;5001414;28;20026;-29
2023/05/19 00:35:50;;;;;;;1.95;1.85;;;;;;;;;;5001446;28;20054;-30
2023/05/19 00:38:16;;;;;;;2.08;1.98;;;;;;;;;;5001662;28;20022;-27
2023/05/19 00:40:42;;;;;;;3.42;1.95;;;;;;;;;;4984257;28;20037;-32
2023/05/19 00:43:08;;;;;;;2.00;1.90;;;;;;;;;;5001386;28;20034;-31
2023/05/19 00:45:34;;;;;;;1.55;1.50;;;;;;;;;;4984232;28;20442;-27
2023/05/19 00:48:00;;;;;;;2.33;2.22;;;;;;;;;;5001368;28;20018;-30
2023/05/19 00:50:27;;;;;;;1.77;1.67;;;;;;;;;;5001353;28;20034;-29
2023/05/19 00:52:54;;;;;;;1.80;1.70;;;;;;;;;;5002075;28;20401;-31
2023/05/19 00:55:26;;;;;;;1.45;1.35;;;;;;;;;;4984854;28;20054;-30
2023/05/19 00:57:52;;;;;;;2.00;1.90;;;;;;;;;;5001554;28;20068;-30
2023/05/19 01:00:18;;;;;;;1.45;1.35;;;;;;;;;;5001260;28;20050;-31
2023/05/19 01:02:45;;;;;;;2.28;2.17;;;;;;;;;;5001041;28;20054;-28
2023/05/19 01:05:12;;;;;;;1.85;1.75;;;;;;;;;;5001231;28;20446;-32
2023/05/19 01:07:38;;;;;;;1.63;1.52;;;;;;;;;;5001194;28;20034;-28
2023/05/19 01:10:05;;;;;;;1.63;1.50;;;;;;;;;;5001448;28;20029;-29
2023/05/19 01:12:31;;;;;;;1.50;1.40;;;;;;;;;;4984475;28;20041;-29
2023/05/19 01:14:58;;;;;;;1.85;1.75;;;;;;;;;;5001124;28;20101;-28
2023/05/19 01:17:41;;;;;;;1.70;1.60;;;;;;;;;;4981709;28;20042;-32
2023/05/19 01:20:27;;;;;;;1.90;1.80;;;;;;;;;;4998223;28;20088;-30
2023/05/19 01:22:56;;;;;;;1.90;1.80;;;;;;;;;;4997988;28;20354;-30
2023/05/19 01:25:41;;;;;;;1.73;1.63;;;;;;;;;;4997972;28;20496;-31
2023/05/19 01:28:26;;;;;;;1.23;1.23;;;;;;;;;;4998378;28;20034;-29
2023/05/19 01:30:53;;;;;;;1.92;1.83;;;;;;;;;;4998310;28;20029;-32
2023/05/19 01:33:20;;;;;;;1.70;1.60;;;;;;;;;;4997718;28;20030;-31
2023/05/19 01:35:47;;;;;;;1.85;1.75;;;;;;;;;;4997753;28;20098;-31
2023/05/19 01:38:15;;;;;;;1.50;1.40;;;;;;;;;;4997701;28;20114;-29
2023/05/19 01:40:42;;;;;;;1.63;1.52;;;;;;;;;;4998163;28;20023;-31
2023/05/19 01:43:10;;;;;;;1.77;1.67;;;;;;;;;;4997447;28;20355;-31
2023/05/19 01:45:36;;;;;;;1.45;1.42;;;;;;;;;;4997544;28;20026;-32
2023/05/19 01:48:04;;;;;;;1.70;1.60;;;;;;;;;;4997812;28;20022;-28
2023/05/19 01:50:31;;;;;;;1.70;1.60;;;;;;;;;;4998011;28;20041;-32
2023/05/19 01:52:58;;;;;;;1.98;1.88;;;;;;;;;;4997335;28;20050;-31
2023/05/19 01:55:24;;;;;;;1.67;1.55;;;;;;;;;;4997376;28;20045;-28
2023/05/19 01:57:53;;;;;;;1.38;1.33;;;;;;;;;;4997596;28;20442;-30
2023/05/19 02:00:31;;;;;;;1.98;1.88;;;;;;;;;;4997273;28;20026;-30
2023/05/19 02:03:06;;;;;;;1.83;1.73;;;;;;;;;;4996982;28;20050;-30
2023/05/19 02:05:35;;;;;;;1.23;1.23;;;;;;;;;;4997459;28;20026;-29
2023/05/19 02:08:05;;;;;;;1.40;1.40;;;;;;;;;;4980022;28;20353;-30
2023/05/19 02:10:32;;;;;;;2.08;1.80;;;;;;;;;;4997410;28;20092;-32
2023/05/19 02:13:01;;;;;;;1.77;1.67;;;;;;;;;;4997562;28;20050;-28
2023/05/19 02:15:29;;;;;;;1.90;1.80;;;;;;;;;;4997323;28;20358;-30
2023/05/19 02:17:58;;;;;;;1.70;1.60;;;;;;;;;;4997528;28;20366;-32
2023/05/19 02:20:25;;;;;;;1.75;1.65;;;;;;;;;;4979770;28;20026;-27
2023/05/19 02:22:51;;;;;;;1.73;1.63;;;;;;;;;;4996974;28;20366;-29
2023/05/19 02:25:17;;;;;;;1.50;1.40;;;;;;;;;;4996755;28;20037;-30
2023/05/19 02:27:43;;;;;;;1.38;1.33;;;;;;;;;;4997052;28;20018;-29
2023/05/19 02:30:10;;;;;;;1.92;1.83;;;;;;;;;;4996822;28;20335;-30
2023/05/19 02:32:36;;;;;;;1.58;1.48;;;;;;;;;;4996559;28;20023;-31
2023/05/19 02:35:02;;;;;;;1.65;1.55;;;;;;;;;;4997215;28;20031;-31
2023/05/19 02:37:29;;;;;;;1.80;1.70;;;;;;;;;;4996842;28;20038;-30
2023/05/19 02:39:56;;;;;;;1.50;1.50;;;;;;;;;;4996579;28;20030;-26
2023/05/19 02:42:22;;;;;;;1.83;1.73;;;;;;;;;;4996298;28;20026;-30
2023/05/19 02:44:48;;;;;;;1.60;1.50;;;;;;;;;;4996446;28;20031;-30
2023/05/19 02:47:14;;;;;;;1.63;1.52;;;;;;;;;;4996368;28;20030;-30
2023/05/19 02:49:41;;;;;;;1.85;1.75;;;;;;;;;;4996680;28;20026;-30
2023/05/19 02:52:08;;;;;;;1.45;1.35;;;;;;;;;;4996180;28;20026;-29
2023/05/19 02:54:34;;;;;;;1.45;1.42;;;;;;;;;;4996557;28;20030;-30
2023/05/19 02:57:00;;;;;;;1.58;1.48;;;;;;;;;;4996480;28;20026;-31
2023/05/19 02:59:27;;;;;;;1.73;1.63;;;;;;;;;;4979036;28;20073;-27
2023/05/19 03:01:55;;;;;;;1.58;1.48;;;;;;;;;;4996210;28;20081;-31
2023/05/19 03:04:21;;;;;;;1.80;1.70;;;;;;;;;;4995904;28;20085;-30
2023/05/19 03:06:47;;;;;;;1.45;1.35;;;;;;;;;;4996053;28;20026;-30
2023/05/19 03:09:14;;;;;;;1.50;1.40;;;;;;;;;;4996005;28;20037;-30
2023/05/19 03:11:40;;;;;;;2.15;1.95;;;;;;;;;;4996657;28;20037;-29
2023/05/19 03:14:08;;;;;;;1.70;1.60;;;;;;;;;;4995850;28;20157;-30
2023/05/19 03:16:34;;;;;;;1.73;1.63;;;;;;;;;;4995815;28;20038;-31
2023/05/19 03:19:00;;;;;;;1.70;1.60;;;;;;;;;;4996080;28;20038;-30
2023/05/19 03:21:26;;;;;;;1.50;1.40;;;;;;;;;;4995709;28;20030;-30
2023/05/19 03:23:53;;;;;;;1.75;1.65;;;;;;;;;;4995760;28;20508;-30
2023/05/19 03:26:21;;;;;;;1.63;1.52;;;;;;;;;;4995983;28;20354;-31
2023/05/19 03:28:48;;;;;;;1.80;1.70;;;;;;;;;;4978499;28;20480;-29
2023/05/19 03:31:15;;;;;;;1.73;1.63;;;;;;;;;;4995603;28;20450;-31
2023/05/19 03:33:41;;;;;;;2.03;1.92;;;;;;;;;;4995572;28;20520;-31
2023/05/19 03:36:07;;;;;;;1.60;1.50;;;;;;;;;;4995560;28;20077;-29
2023/05/19 03:38:33;;;;;;;1.63;1.52;;;;;;;;;;4995555;28;20035;-27
2023/05/19 03:40:59;;;;;;;1.70;1.60;;;;;;;;;;4994886;28;20089;-31
2023/05/19 03:43:25;;;;;;;1.60;1.50;;;;;;;;;;4995426;28;20106;-30
2023/05/19 03:45:52;;;;;;;1.77;1.67;;;;;;;;;;4978234;28;20457;-30
2023/05/19 03:48:18;;;;;;;1.85;1.75;;;;;;;;;;4995839;28;20434;-30
2023/05/19 03:50:44;;;;;;;1.88;1.70;;;;;;;;;;4995310;28;20480;-32
2023/05/19 03:53:10;;;;;;;1.60;1.50;;;;;;;;;;4995202;28;20026;-31
2023/05/19 03:55:36;;;;;;;1.52;1.42;;;;;;;;;;4995484;28;20105;-32
2023/05/19 03:58:03;;;;;;;2.17;1.98;;;;;;;;;;4995213;28;20165;-32
2023/05/19 04:00:30;;;;;;;1.45;1.35;;;;;;;;;;4978398;28;20034;-29
2023/05/19 04:02:56;;;;;;;1.25;1.25;;;;;;;;;;4994816;28;20058;-30
2023/05/19 04:05:22;;;;;;;2.00;1.90;;;;;;;;;;4995546;28;20097;-29
2023/05/19 04:07:49;;;;;;;1.55;1.45;;;;;;;;;;4995803;28;20081;-32
2023/05/19 04:10:16;;;;;;;1.88;1.77;;;;;;;;;;4995217;28;20097;-29
2023/05/19 04:12:42;;;;;;;1.70;1.60;;;;;;;;;;4995048;28;20368;-32
2023/05/19 04:15:10;;;;;;;1.60;1.50;;;;;;;;;;4994841;28;20030;-33
2023/05/19 04:17:37;;;;;;;1.52;1.42;;;;;;;;;;4978116;28;20038;-31
2023/05/19 04:20:05;;;;;;;1.58;1.48;;;;;;;;;;4994799;28;20034;-30
2023/05/19 04:22:31;;;;;;;1.67;1.58;;;;;;;;;;4994926;28;20109;-32
2023/05/19 04:24:58;;;;;;;1.85;1.58;;;;;;;;;;4977681;28;20106;-29
2023/05/19 04:27:26;;;;;;;1.77;1.67;;;;;;;;;;4995117;28;20361;-31
2023/05/19 04:29:53;;;;;;;1.77;1.67;;;;;;;;;;4995230;28;20045;-31
2023/05/19 04:32:19;;;;;;;1.60;1.50;;;;;;;;;;4995050;28;20023;-30
2023/05/19 04:34:46;;;;;;;1.42;1.42;;;;;;;;;;4995141;28;20442;-32
2023/05/19 04:37:16;;;;;;;1.70;1.60;;;;;;;;;;4977752;28;20033;-29
2023/05/19 04:39:44;;;;;;;1.60;1.50;;;;;;;;;;4994782;28;20022;-30
2023/05/19 04:42:10;;;;;;;1.65;1.55;;;;;;;;;;4977462;28;20026;-30
2023/05/19 04:44:38;;;;;;;1.50;1.35;;;;;;;;;;4994630;28;20041;-29
2023/05/19 04:47:07;;;;;;;2.55;1.60;;;;;;;;;;4994732;28;20029;-31
2023/05/19 04:49:37;;;;;;;2.15;1.65;;;;;;;;;;4977482;28;20027;-29
2023/05/19 04:52:06;;;;;;;1.98;1.83;;;;;;;;;;4994469;28;20121;-31
2023/05/19 04:54:32;;;;;;;3.38;3.08;;;;;;;;;;4998034;28;20037;-32
2023/05/19 04:56:58;;;;;;;1.92;1.60;;;;;;;;;;4997932;28;20469;-29
2023/05/19 04:59:24;;;;;;;1.63;1.52;;;;;;;;;;4980818;28;20061;-31
2023/05/19 05:01:50;;;;;;;1.83;1.73;;;;;;;;;;4998238;28;20026;-30
2023/05/19 05:04:16;;;;;;;1.63;1.52;;;;;;;;;;4997989;28;20085;-29
2023/05/19 05:06:46;;;;;;;1.95;1.38;;;;;;;;;;4998126;28;20061;-33
2023/05/19 05:09:13;;;;;;;1.35;1.35;;;;;;;;;;4998030;28;20018;-28
2023/05/19 05:11:40;;;;;;;1.92;1.70;;;;;;;;;;4998337;28;20041;-31
2023/05/19 05:14:06;;;;;;;2.25;2.05;;;;;;;;;;4997832;28;20035;-27
2023/05/19 05:16:32;;;;;;;2.10;1.45;;;;;;;;;;4980703;28;20413;-30
2023/05/19 05:18:59;;;;;;;3.08;1.45;;;;;;;;;;4997842;28;20117;-32
2023/05/19 05:21:26;;;;;;;9.52;1.70;;;;;;;;;;4998122;28;20022;-28
2023/05/19 05:23:53;;;;;;;1.40;1.30;;;;;;;;;;4997760;28;20504;-28
2023/05/19 05:26:21;;;;;;;2.58;1.58;;;;;;;;;;4997810;28;20061;-30
2023/05/19 05:28:48;;;;;;;2.53;1.63;;;;;;;;;;4997605;28;20022;-30
2023/05/19 05:31:14;;;;;;;3.85;1.88;;;;;;;;;;4997935;28;20409;-32
2023/05/19 05:33:41;;;;;;;1.83;1.67;;;;;;;;;;4997572;28;20026;-32
2023/05/19 05:36:08;;;;;;;1.42;1.30;;;;;;;;;;4997740;28;20105;-29
2023/05/19 05:38:34;;;;;;;5.32;1.92;;;;;;;;;;4997378;28;20034;-32
2023/05/19 05:41:01;;;;;;;2.00;1.63;;;;;;;;;;4997479;28;20327;-31
2023/05/19 05:43:28;;;;;;;1.67;1.58;;;;;;;;;;4997271;28;20081;-32
2023/05/19 05:45:54;;;;;;;1.80;1.70;;;;;;;;;;4997396;28;20101;-32
2023/05/19 05:48:21;;;;;;;2.40;2.20;;;;;;;;;;4980297;28;20105;-27
2023/05/19 05:50:48;;;;;;;2.22;1.70;;;;;;;;;;4997472;28;20030;-30
2023/05/19 05:53:18;;;;;;;1.70;1.60;;;;;;;;;;4997250;28;20045;-28
2023/05/19 05:55:45;;;;;;;2.17;1.85;;;;;;;;;;4997457;28;20029;-30
2023/05/19 05:58:11;;;;;;;3.72;1.67;;;;;;;;;;4997097;28;20022;-32
2023/05/19 06:00:37;;;;;;;2.35;1.88;;;;;;;;;;4979951;28;20027;-29
2023/05/19 06:03:04;;;;;;;1.42;1.23;;;;;;;;;;4996471;28;20053;-31
2023/05/19 06:05:30;;;;;;;1.70;1.60;;;;;;;;;;4979706;28;20028;-29
2023/05/19 06:07:56;;;;;;;2.08;1.90;;;;;;;;;;4997038;28;20038;-31
2023/05/19 06:10:22;;;;;;;3.85;1.52;;;;;;;;;;4996923;28;20022;-33
2023/05/19 06:12:49;;;;;;;7.13;2.08;;;;;;;;;;4996909;28;20034;-31
2023/05/19 06:15:15;;;;;;;3.08;1.80;;;;;;;;;;4997111;28;20048;-31
2023/05/19 06:17:41;;;;;;;3.88;1.70;;;;;;;;;;4996765;28;20026;-32
2023/05/19 06:20:08;;;;;;;2.20;1.85;;;;;;;;;;4979712;28;20084;-31
2023/05/19 06:22:35;;;;;;;1.92;1.63;;;;;;;;;;4996534;28;20092;-32
2023/05/19 06:25:01;;;;;;;1.92;1.80;;;;;;;;;;4997000;28;20357;-30
2023/05/19 06:27:27;;;;;;;8.60;1.55;;;;;;;;;;4996960;28;20033;-29
2023/05/19 06:29:53;;;;;;;2.10;1.67;;;;;;;;;;4997201;28;20342;-32
2023/05/19 06:32:19;;;;;;;4.28;1.85;;;;;;;;;;4996530;28;20030;-30
2023/05/19 06:34:52;;;;;;;3.63;1.70;;;;;;;;;;4996527;28;20569;-31
2023/05/19 06:37:18;;;;;;;2.30;1.42;;;;;;;;;;4996448;28;20059;-33
2023/05/19 06:39:45;;;;;;;2.28;1.77;;;;;;;;;;4996610;28;20039;-27
2023/05/19 06:42:11;;;;;;;3.28;1.80;;;;;;;;;;4979069;28;20331;-32
2023/05/19 06:44:37;;;;;;;2.28;1.58;;;;;;;;;;4996213;28;20037;-30
2023/05/19 06:47:03;;;;;;;4.20;1.83;;;;;;;;;;4996213;28;20018;-30
2023/05/19 06:49:29;;;;;;;3.72;2.00;;;;;;;;;;4979297;28;20071;-31
2023/05/19 06:51:55;;;;;;;4.80;1.75;;;;;;;;;;4996375;28;20322;-30
2023/05/19 06:54:21;;;;;;;1.60;1.50;;;;;;;;;;4996838;28;20061;-31
2023/05/19 06:56:48;;;;;;;5.05;1.45;;;;;;;;;;4996186;28;20026;-31
2023/05/19 06:59:15;;;;;;;1.88;1.73;;;;;;;;;;4996230;28;20108;-31
2023/05/19 07:01:41;;;;;;;1.40;1.30;;;;;;;;;;4996189;28;20034;-30
2023/05/19 07:04:07;;;;;;;2.08;1.80;;;;;;;;;;4995722;28;20192;-32
2023/05/19 07:06:33;;;;;;;2.22;1.45;;;;;;;;;;4979280;28;20037;-28
2023/05/19 07:08:59;;;;;;;5.45;1.95;;;;;;;;;;4996013;28;20049;-31
2023/05/19 07:11:25;;;;;;;3.72;1.58;;;;;;;;;;4996019;28;20022;-32
2023/05/19 07:13:51;;;;;;;7.82;2.20;;;;;;;;;;4995672;28;20034;-29
2023/05/19 07:16:17;;;;;;;3.42;2.15;;;;;;;;;;4995140;28;20029;-30
2023/05/19 07:18:43;;;;;;;2.60;2.20;;;;;;;;;;4995568;28;20026;-30
2023/05/19 07:21:09;;;;;;;3.80;1.80;;;;;;;;;;4995766;28;20022;-33
2023/05/19 07:23:35;;;;;;;2.28;1.88;;;;;;;;;;4995621;28;20022;-27
2023/05/19 07:26:02;;;;;;;9.13;2.90;;;;;;;;;;4995509;28;20065;-27
2023/05/19 07:28:28;;;;;;;3.53;1.75;;;;;;;;;;4995444;28;20027;-33
2023/05/19 07:30:54;;;;;;;4.10;1.80;;;;;;;;;;4978336;28;20023;-27
2023/05/19 07:33:20;;;;;;;2.30;1.98;;;;;;;;;;4995396;28;20034;-30
2023/05/19 07:35:46;;;;;;;6.40;2.08;;;;;;;;;;4995759;28;20058;-31
2023/05/19 07:38:13;;;;;;;2.13;1.58;;;;;;;;;;4995655;28;20026;-29
2023/05/19 07:40:39;;;;;;;2.85;1.88;;;;;;;;;;4995343;28;20049;-31
2023/05/19 07:43:05;;;;;;;2.58;2.00;;;;;;;;;;4995166;28;20026;-30
2023/05/19 07:45:31;;;;;;;2.92;1.90;;;;;;;;;;4977972;28;20105;-30
2023/05/19 07:47:57;;;;;;;5.40;1.85;;;;;;;;;;4996077;28;20026;-30
2023/05/19 07:50:24;;;;;;;9.45;1.85;;;;;;;;;;4995187;28;20022;-31
2023/05/19 07:52:50;;;;;;;3.42;1.83;;;;;;;;;;4977904;28;20084;-27
2023/05/19 07:55:18;;;;;;;3.90;2.38;;;;;;;;;;4995201;28;20034;-32
2023/05/19 07:57:44;;;;;;;2.75;1.85;;;;;;;;;;4995360;28;20030;-28
2023/05/19 08:00:11;;;;;;;5.18;1.63;;;;;;;;;;4995239;28;20033;-31
2023/05/19 08:02:37;;;;;;;4.15;1.95;;;;;;;;;;4995033;28;20151;-31
2023/05/19 08:05:03;;;;;;;1.92;1.70;;;;;;;;;;4978022;28;20026;-27
2023/05/19 08:07:29;;;;;;;3.58;2.17;;;;;;;;;;4995160;28;20030;-30
2023/05/19 08:09:56;;;;;;;5.47;2.00;;;;;;;;;;4995158;28;20398;-30
2023/05/19 08:12:22;;;;;;;3.63;1.80;;;;;;;;;;4995240;28;20044;-32
2023/05/19 08:14:48;;;;;;;9.20;2.20;;;;;;;;;;4995146;28;20029;-26
2023/05/19 08:17:15;;;;;;;2.47;2.00;;;;;;;;;;4995011;28;20030;-33
2023/05/19 08:19:41;;;;;;;2.30;1.75;;;;;;;;;;4995220;28;20034;-31
2023/05/19 08:22:07;;;;;;;4.68;2.22;;;;;;;;;;4994720;28;20168;-32
2023/05/19 08:24:33;;;;;;;4.05;2.03;;;;;;;;;;4994877;28;20504;-28
2023/05/19 08:26:59;;;;;;;3.40;1.88;;;;;;;;;;4996455;28;20022;-30
2023/05/19 08:29:25;;;;;;;1.85;1.70;;;;;;;;;;4998830;28;20026;-31
2023/05/19 08:31:52;;;;;;;3.10;1.70;;;;;;;;;;4998845;28;20030;-30
2023/05/19 08:34:18;;;;;;;1.90;1.58;;;;;;;;;;4998902;28;20353;-31
2023/05/19 08:36:44;;;;;;;12.50;1.77;;;;;;;;;;4998605;28;20030;-31
2023/05/19 08:39:12;;;;;;;8.98;2.40;;;;;;;;;;4998807;28;20088;-31
2023/05/19 08:41:39;;;;;;;8.15;3.00;;;;;;;;;;4998746;28;20035;-31
2023/05/19 08:44:05;;;;;;;12.50;2.78;;;;;;;;;;4998671;28;20029;-28
2023/05/19 08:46:31;;;;;;;4.65;1.60;;;;;;;;;;4999203;28;20022;-32
2023/05/19 08:49:11;;;;;;;1.83;1.50;;;;;;;;;;4998483;28;20097;-32
2023/05/19 08:51:49;;;;;;;7.28;1.92;;;;;;;;;;4998668;28;20361;-28
2023/05/19 08:54:16;;;;;;;7.38;1.65;;;;;;;;;;4998301;28;20031;-28
2023/05/19 08:56:44;;;;;;;9.55;2.63;;;;;;;;;;4998571;28;20030;-29
2023/05/19 08:59:11;;;;;;;2.78;2.10;;;;;;;;;;4998556;28;20401;-30
2023/05/19 09:01:38;;;;;;;9.32;1.95;;;;;;;;;;4998360;28;20037;-30
2023/05/19 09:04:05;;;;;;;5.15;2.22;;;;;;;;;;4997883;28;20126;-32
2023/05/19 09:06:31;;;;;;;4.13;1.63;;;;;;;;;;4998162;28;20022;-29
2023/05/19 09:08:57;;;;;;;7.80;1.77;;;;;;;;;;4998397;28;20073;-30
2023/05/19 09:11:23;;;;;;;4.60;1.85;;;;;;;;;;4998709;28;20027;-30
2023/05/19 09:13:50;;;;;;;4.97;2.20;;;;;;;;;;4998045;28;20038;-31
2023/05/19 09:16:16;;;;;;;2.28;1.95;;;;;;;;;;4997945;28;20354;-30
2023/05/19 09:18:53;;;;;;;3.83;2.20;;;;;;;;;;4997941;28;20038;-31
2023/05/19 09:21:20;;;;;;;3.72;2.35;;;;;;;;;;4997787;28;20037;-31
2023/05/19 09:23:47;;;;;;;4.38;2.22;;;;;;;;;;4997777;28;20026;-38
2023/05/19 09:26:14;;;;;;;2.38;1.67;;;;;;;;;;4997661;28;20165;-30
2023/05/19 09:28:40;;;;;;;5.35;2.13;;;;;;;;;;4997530;28;20076;-29
2023/05/19 09:31:08;;;;;;;4.95;2.13;;;;;;;;;;4997498;28;20042;-30
2023/05/19 09:33:35;;;;;;;5.15;1.77;;;;;;;;;;4997869;28;20050;-30
2023/05/19 09:36:02;;;;;;;7.93;2.28;;;;;;;;;;4980396;28;20033;-29
2023/05/19 09:38:28;;;;;;;6.63;2.40;;;;;;;;;;4996623;28;20339;-30
2023/05/19 09:40:59;;;;;;;6.45;2.25;;;;;;;;;;4997818;28;20041;-29
2023/05/19 09:43:29;;;;;;;4.10;1.90;;;;;;;;;;4997174;28;20462;-27
2023/05/19 09:46:05;;;;;;;6.50;2.00;;;;;;;;;;4997371;28;20097;-26
2023/05/19 09:48:31;;;;;;;4.55;2.88;;;;;;;;;;4997506;28;20029;-30
2023/05/19 09:50:57;;;;;;;7.93;1.98;;;;;;;;;;4997221;28;20041;-31
2023/05/19 09:53:24;;;;;;;11.93;3.17;;;;;;;;;;4997266;28;20022;-31
2023/05/19 09:55:50;;;;;;;5.72;2.78;;;;;;;;;;4997138;28;20038;-31
2023/05/19 09:58:18;;;;;;;4.40;2.72;;;;;;;;;;4997242;28;20092;-30
2023/05/19 10:00:47;;;;;;;8.27;2.75;;;;;;;;;;4979946;28;20030;-28
2023/05/19 10:03:15;;;;;;;15.05;2.70;;;;;;;;;;4996839;28;20231;-29
2023/05/19 10:05:41;;;;;;;7.80;2.40;;;;;;;;;;4996980;28;20018;-32
2023/05/19 10:08:09;;;;;;;10.57;1.95;;;;;;;;;;4997178;28;20027;-31
2023/05/19 10:10:36;;;;;;;7.03;2.00;;;;;;;;;;4996854;28;20027;-29
2023/05/19 10:13:03;;;;;;;8.55;2.30;;;;;;;;;;4996504;28;20023;-30
2023/05/19 10:15:29;;;;;;;6.78;2.28;;;;;;;;;;4996698;28;20100;-32
2023/05/19 10:17:55;;;;;;;10.68;2.53;;;;;;;;;;4997175;28;20058;-29
2023/05/19 10:20:22;;;;;;;4.35;2.00;;;;;;;;;;4996475;28;20037;-31
2023/05/19 10:22:48;;;;;;;11.48;2.55;;;;;;;;;;4996629;28;20030;-31
2023/05/19 10:25:17;;;;;;;17.13;2.45;;;;;;;;;;4996400;28;20022;-30
2023/05/19 10:27:51;;;;;;;6.47;2.15;;;;;;;;;;4996443;28;20019;-30
2023/05/19 10:30:20;;;;;;;3.95;2.17;;;;;;;;;;4996843;28;20084;-28
2023/05/19 10:32:48;;;;;;;8.20;2.00;;;;;;;;;;4996268;28;20030;-30
2023/05/19 10:35:23;;;;;;;4.63;2.15;;;;;;;;;;4996630;28;20380;-29
2023/05/19 10:37:58;;;;;;;5.35;2.10;;;;;;;;;;4996406;28;20101;-30
2023/05/19 10:40:29;;;;;;;5.07;2.13;;;;;;;;;;4996897;28;20041;-31
2023/05/19 10:43:13;;;;;;;7.37;2.30;;;;;;;;;;4995978;28;20090;-30
2023/05/19 10:45:43;;;;;;;5.03;2.42;;;;;;;;;;4996003;28;20600;-28
2023/05/19 10:48:16;;;;;;;12.10;2.38;;;;;;;;;;4996040;28;20014;-29
2023/05/19 10:50:46;;;;;;;4.55;2.38;;;;;;;;;;4978860;28;20454;-32
2023/05/19 10:53:20;;;;;;;11.25;2.67;;;;;;;;;;4996327;28;20022;-27
2023/05/19 10:55:47;;;;;;;12.32;2.38;;;;;;;;;;4996129;28;20038;-30
2023/05/19 10:58:13;;;;;;;8.38;2.40;;;;;;;;;;4995904;28;20033;-32
2023/05/19 11:00:40;;;;;;;9.40;2.33;;;;;;;;;;4995863;28;20079;-29
2023/05/19 11:03:13;;;;;;;2.88;2.13;;;;;;;;;;4995523;28;20050;-31
2023/05/19 11:05:40;;;;;;;4.45;2.33;;;;;;;;;;4996156;28;20034;-30
2023/05/19 11:08:10;;;;;;;7.93;2.13;;;;;;;;;;4996660;28;20447;-29
2023/05/19 11:10:37;;;;;;;16.52;3.00;;;;;;;;;;4996196;28;20030;-29
2023/05/19 11:13:06;;;;;;;3.90;2.05;;;;;;;;;;4996012;28;20128;-31
2023/05/19 11:15:37;;;;;;;12.82;2.53;;;;;;;;;;4995307;28;20042;-30
2023/05/19 11:18:05;;;;;;;4.18;1.98;;;;;;;;;;4996340;28;20353;-28
2023/05/19 11:20:33;;;;;;;6.68;2.65;;;;;;;;;;4995559;28;20030;-27
2023/05/19 11:23:05;;;;;;;5.05;2.17;;;;;;;;;;4978176;28;20489;-30
2023/05/19 11:25:48;;;;;;;5.40;2.42;;;;;;;;;;4978264;28;20027;-30
2023/05/19 11:28:18;;;;;;;1.95;1.52;;;;;;;;;;4995449;28;20019;-28
2023/05/19 11:30:45;;;;;;;6.75;2.13;;;;;;;;;;4995522;28;20018;-29
2023/05/19 11:33:12;;;;;;;7.15;2.25;;;;;;;;;;4995082;28;20110;-32
2023/05/19 11:35:39;;;;;;;3.20;2.13;;;;;;;;;;4978178;28;20058;-29
2023/05/19 11:38:06;;;;;;;3.30;2.47;;;;;;;;;;4995302;28;20022;-32
2023/05/19 11:40:32;;;;;;;5.40;2.53;;;;;;;;;;4995265;28;20049;-28
2023/05/19 11:43:00;;;;;;;9.13;2.17;;;;;;;;;;4995209;28;20371;-29
2023/05/19 11:45:27;;;;;;;10.05;2.38;;;;;;;;;;4977785;28;20081;-31
2023/05/19 11:47:56;;;;;;;9.13;2.78;;;;;;;;;;4995202;28;20023;-29
2023/05/19 11:50:23;;;;;;;4.57;2.13;;;;;;;;;;4994945;28;20030;-29
2023/05/19 11:52:50;;;;;;;4.97;3.03;;;;;;;;;;4995020;28;20058;-30
2023/05/19 11:55:23;;;;;;;5.30;2.10;;;;;;;;;;4995188;28;20101;-31
2023/05/19 11:57:59;;;;;;;13.05;3.15;;;;;;;;;;4995005;28;20038;-29
2023/05/19 12:00:29;;;;;;;3.90;2.42;;;;;;;;;;4995029;28;20030;-29
2023/05/19 12:02:55;;;;;;;8.23;2.83;;;;;;;;;;4994412;28;20129;-31
2023/05/19 12:05:22;;;;;;;6.50;2.25;;;;;;;;;;4994925;28;20018;-29
2023/05/19 12:07:50;;;;;;;12.98;4.32;;;;;;;;;;4977737;28;20511;-30
2023/05/19 12:10:18;;;;;;;8.57;2.50;;;;;;;;;;4994930;28;20022;-29
2023/05/19 12:12:45;;;;;;;8.30;2.95;;;;;;;;;;4994812;28;20022;-30
2023/05/19 12:15:11;;;;;;;10.10;2.83;;;;;;;;;;4995679;28;20034;-30
2023/05/19 12:17:37;;;;;;;7.03;2.10;;;;;;;;;;4994850;28;20057;-29
2023/05/19 12:20:04;;;;;;;7.90;3.03;;;;;;;;;;4994852;28;20330;-27
2023/05/19 12:22:30;;;;;;;6.95;2.20;;;;;;;;;;4994843;28;20335;-29
2023/05/19 12:24:57;;;;;;;3.97;2.78;;;;;;;;;;4994732;28;20026;-28
2023/05/19 12:27:25;;;;;;;2.85;2.08;;;;;;;;;;4994696;28;20023;-31
2023/05/19 12:29:58;;;;;;;4.63;1.92;;;;;;;;;;4977803;28;20102;-30
2023/05/19 12:32:25;;;;;;;9.60;2.70;;;;;;;;;;4994988;28;20026;-30
2023/05/19 12:34:52;;;;;;;3.03;2.03;;;;;;;;;;4994799;28;20069;-29
2023/05/19 12:37:18;;;;;;;14.02;3.80;;;;;;;;;;4994698;28;20048;-26
2023/05/19 12:39:45;;;;;;;9.23;3.15;;;;;;;;;;4995022;28;20034;-30
2023/05/19 12:42:11;;;;;;;16.38;2.85;;;;;;;;;;4994771;28;20046;-30
2023/05/19 12:44:38;;;;;;;10.25;2.17;;;;;;;;;;4994981;28;20346;-25
2023/05/19 12:47:05;;;;;;;7.82;2.42;;;;;;;;;;4977658;28;20433;-29
2023/05/19 12:49:32;;;;;;;7.53;2.63;;;;;;;;;;4994754;28;20449;-29
2023/05/19 12:52:01;;;;;;;5.40;3.63;;;;;;;;;;4994944;28;20030;-27
2023/05/19 12:54:30;;;;;;;5.13;2.55;;;;;;;;;;4994954;28;20037;-29
2023/05/19 12:56:58;;;;;;;4.20;2.10;;;;;;;;;;4994555;28;20477;-29
2023/05/19 12:59:25;;;;;;;5.38;2.58;;;;;;;;;;4994547;28;20462;-33
2023/05/19 13:01:58;;;;;;;6.10;2.08;;;;;;;;;;4994389;28;20041;-30
2023/05/19 13:04:24;;;;;;;10.57;2.47;;;;;;;;;;4994473;28;20378;-29
2023/05/19 13:06:51;;;;;;;6.20;2.65;;;;;;;;;;4994765;28;20019;-30
2023/05/19 13:09:18;;;;;;;5.75;2.53;;;;;;;;;;4994676;28;20114;-32
2023/05/19 13:11:49;;;;;;;10.25;2.35;;;;;;;;;;4995402;28;20100;-31
2023/05/19 13:14:17;;;;;;;12.65;2.70;;;;;;;;;;4996116;28;20041;-27
2023/05/19 13:16:43;;;;;;;7.30;2.65;;;;;;;;;;4998034;28;20030;-29
2023/05/19 13:19:09;;;;;;;7.93;3.15;;;;;;;;;;4998044;28;20438;-31
2023/05/19 13:21:35;;;;;;;10.45;2.30;;;;;;;;;;4997909;28;20030;-29
2023/05/19 13:24:03;;;;;;;6.05;2.53;;;;;;;;;;4997898;28;20022;-27
2023/05/19 13:26:29;;;;;;;6.68;2.45;;;;;;;;;;4998116;28;20035;-30
2023/05/19 13:28:55;;;;;;;9.23;2.65;;;;;;;;;;4998235;28;20023;-30
2023/05/19 13:31:21;;;;;;;10.80;3.22;;;;;;;;;;4997745;28;20033;-29
2023/05/19 13:33:47;;;;;;;6.78;2.15;;;;;;;;;;4997997;28;20046;-28
2023/05/19 13:36:13;;;;;;;9.00;2.75;;;;;;;;;;4997761;28;20034;-31
2023/05/19 13:38:40;;;;;;;10.32;2.83;;;;;;;;;;4997740;28;20018;-26
2023/05/19 13:41:07;;;;;;;7.65;2.30;;;;;;;;;;4997680;28;20343;-29
2023/05/19 13:43:33;;;;;;;5.95;2.33;;;;;;;;;;4997541;28;20022;-29
2023/05/19 13:45:59;;;;;;;13.65;2.50;;;;;;;;;;4997625;28;20030;-29
2023/05/19 13:48:25;;;;;;;7.03;2.17;;;;;;;;;;4997584;28;20026;-31
2023/05/19 13:50:53;;;;;;;5.82;2.90;;;;;;;;;;4997449;28;20026;-29
2023/05/19 13:53:19;;;;;;;4.30;2.78;;;;;;;;;;4980230;28;20026;-28
2023/05/19 13:55:46;;;;;;;4.45;2.40;;;;;;;;;;4997684;28;20101;-29
2023/05/19 13:58:13;;;;;;;11.80;2.10;;;;;;;;;;4997606;28;20026;-32
2023/05/19 14:00:40;;;;;;;9.35;3.08;;;;;;;;;;4980105;28;20114;-28
2023/05/19 14:03:06;;;;;;;8.27;2.92;;;;;;;;;;4996916;28;20038;-28
2023/05/19 14:05:33;;;;;;;10.90;2.72;;;;;;;;;;4997205;28;20088;-31
2023/05/19 14:07:59;;;;;;;9.20;2.65;;;;;;;;;;4997044;28;20081;-27
2023/05/19 14:10:26;;;;;;;3.95;2.30;;;;;;;;;;4997273;28;20076;-29
2023/05/19 14:12:52;;;;;;;10.68;3.95;;;;;;;;;;4980458;28;20026;-30
2023/05/19 14:15:22;;;;;;;12.13;2.95;;;;;;;;;;4997107;28;20084;-30
2023/05/19 14:17:48;;;;;;;7.05;2.40;;;;;;;;;;4997359;28;20351;-29
2023/05/19 14:20:14;;;;;;;14.52;3.15;;;;;;;;;;4997212;28;20109;-29
2023/05/19 14:22:40;;;;;;;6.22;3.00;;;;;;;;;;4997291;28;20033;-28
2023/05/19 14:25:07;;;;;;;6.25;3.00;;;;;;;;;;4996670;28;20023;-28
2023/05/19 14:27:33;;;;;;;16.80;3.33;;;;;;;;;;4996624;28;20027;-26
2023/05/19 14:29:59;;;;;;;10.48;2.65;;;;;;;;;;4996724;28;20496;-30
2023/05/19 14:32:25;;;;;;;2.35;2.10;;;;;;;;;;4996825;28;20030;-30
2023/05/19 14:34:51;;;;;;;10.60;2.65;;;;;;;;;;4996641;28;20096;-30
2023/05/19 14:37:18;;;;;;;9.63;3.90;;;;;;;;;;4996815;28;20478;-29
2023/05/19 14:39:44;;;;;;;13.93;2.92;;;;;;;;;;4996855;28;20030;-27
2023/05/19 14:42:10;;;;;;;9.18;2.60;;;;;;;;;;4996661;28;20053;-28